Time;durP1;ratioP1;P1;durP2;ratioP2;P2;SDS_P1;SDS_P2;PMS_P1;PMS_P2;Temp;Humidity;BMP_temperature;BMP_pressure;BME280_temperature;BME280_humidity;BME280_pressure;Samples;Min_cycle;Max_cycle;Signal;HPM_P1;HPM_P2
2022/09/12 00:02:02;;;;;;;5.5;3.5;;;;;;;;;;;;;-76
2022/09/12 00:32:04;;;;;;;8.2;4.6;;;;;;;;;;;;;-75
2022/09/12 01:02:06;;;;;;;11;6.6;;;;;;;;;;;;;-76
2022/09/12 01:32:12;;;;;;;13.5;8.2;;;;;;;;;;;;;-75
2022/09/12 02:02:12;;;;;;;13.1;8;;;;;;;;;;;;;-76
2022/09/12 02:32:15;;;;;;;13.3;7.8;;;;;;;;;;;;;-75
2022/09/12 03:02:19;;;;;;;13.1;7.9;;;;;;;;;;;;;-75
2022/09/12 03:32:16;;;;;;;13.5;7.8;;;;;;;;;;;;;-76
2022/09/12 04:02:17;;;;;;;14.3;8.6;;;;;;;;;;;;;-77
2022/09/12 04:32:21;;;;;;;15.2;8.8;;;;;;;;;;;;;-76
2022/09/12 05:02:21;;;;;;;15;9;;;;;;;;;;;;;-77
2022/09/12 05:32:23;;;;;;;15.5;9.2;;;;;;;;;;;;;-77
2022/09/12 06:02:25;;;;;;;19.7;11.1;;;;;;;;;;;;;-77
2022/09/12 06:32:27;;;;;;;21.8;11.9;;;;;;;;;;;;;-76
2022/09/12 07:02:29;;;;;;;17.8;10.9;;;;;;;;;;;;;-76
2022/09/12 07:32:31;;;;;;;20.8;12;;;;;;;;;;;;;-78
2022/09/12 08:02:33;;;;;;;18.1;11.1;;;;;;;;;;;;;-79
2022/09/12 08:32:37;;;;;;;14.3;9;;;;;;;;;;;;;-77
2022/09/12 09:02:49;;;;;;;12;7.6;;;;;;;;;;;;;-76
2022/09/12 09:32:46;;;;;;;9.8;5.8;;;;;;;;;;;;;-80
2022/09/12 10:02:58;;;;;;;7.5;4.2;;;;;;;;;;;;;-78
2022/09/12 10:32:51;;;;;;;8.1;3.7;;;;;;;;;;;;;-78
2022/09/12 11:03:01;;;;;;;5.3;3.3;;;;;;;;;;;;;-76
2022/09/12 11:33:08;;;;;;;5.2;3.4;;;;;;;;;;;;;-78
2022/09/12 12:03:07;;;;;;;4.9;3.3;;;;;;;;;;;;;-76
2022/09/12 12:33:25;;;;;;;4.2;2.8;;;;;;;;;;;;;-78
2022/09/12 13:03:28;;;;;;;3.4;2.2;;;;;;;;;;;;;-78
2022/09/12 13:33:32;;;;;;;5.2;2;;;;;;;;;;;;;-77
2022/09/12 14:33:29;;;;;;;3.6;2.1;;;;;;;;;;;;;-76
2022/09/12 15:03:34;;;;;;;3.2;1.8;;;;;;;;;;;;;-79
2022/09/12 15:33:38;;;;;;;3.1;2;;;;;;;;;;;;;-78
2022/09/12 16:03:43;;;;;;;2.7;1.8;;;;;;;;;;;;;-77
2022/09/12 16:33:47;;;;;;;3.8;2;;;;;;;;;;;;;-76
2022/09/12 17:03:55;;;;;;;3.6;2.2;;;;;;;;;;;;;-79
2022/09/12 17:33:58;;;;;;;4;2.2;;;;;;;;;;;;;-80
2022/09/12 18:04:00;;;;;;;4.1;2.2;;;;;;;;;;;;;-76
2022/09/12 18:34:04;;;;;;;4.4;2.3;;;;;;;;;;;;;-78
2022/09/12 19:04:07;;;;;;;3.7;2.3;;;;;;;;;;;;;-78
2022/09/12 19:34:10;;;;;;;4.2;2.8;;;;;;;;;;;;;-76
2022/09/12 20:04:15;;;;;;;5;3;;;;;;;;;;;;;-76
2022/09/12 20:34:16;;;;;;;4.5;2.9;;;;;;;;;;;;;-77
2022/09/12 21:04:17;;;;;;;3.8;2.6;;;;;;;;;;;;;-76
2022/09/12 21:34:19;;;;;;;4.5;3;;;;;;;;;;;;;-76
2022/09/12 22:04:21;;;;;;;4.7;3.1;;;;;;;;;;;;;-76
2022/09/12 22:34:24;;;;;;;4.8;3.1;;;;;;;;;;;;;-75
2022/09/12 23:04:26;;;;;;;5.1;3.1;;;;;;;;;;;;;-76
2022/09/12 23:34:32;;;;;;;6.8;3.7;;;;;;;;;;;;;-76
